sensor_id;sensor_type;location;lat;lon;timestamp;P1;durP1;ratioP1;P2;durP2;ratioP2
1693;SDS011;844;47.058;15.472;2023-02-24T00:01:35;53.60;;;45.17;;
1693;SDS011;844;47.058;15.472;2023-02-24T00:04:09;53.33;;;47.73;;
1693;SDS011;844;47.058;15.472;2023-02-24T00:06:41;52.80;;;46.37;;
1693;SDS011;844;47.058;15.472;2023-02-24T00:09:12;47.57;;;42.63;;
1693;SDS011;844;47.058;15.472;2023-02-24T00:11:46;53.43;;;46.47;;
1693;SDS011;844;47.058;15.472;2023-02-24T00:14:21;50.07;;;44.77;;
1693;SDS011;844;47.058;15.472;2023-02-24T00:16:53;55.73;;;46.70;;
1693;SDS011;844;47.058;15.472;2023-02-24T00:19:27;48.33;;;43.10;;
1693;SDS011;844;47.058;15.472;2023-02-24T00:21:59;49.87;;;44.43;;
1693;SDS011;844;47.058;15.472;2023-02-24T00:24:29;54.07;;;44.20;;
1693;SDS011;844;47.058;15.472;2023-02-24T00:27:01;45.07;;;40.27;;
1693;SDS011;844;47.058;15.472;2023-02-24T00:29:34;45.73;;;40.70;;
1693;SDS011;844;47.058;15.472;2023-02-24T00:32:07;46.17;;;38.43;;
1693;SDS011;844;47.058;15.472;2023-02-24T00:34:42;42.53;;;37.90;;
1693;SDS011;844;47.058;15.472;2023-02-24T00:37:14;44.93;;;39.27;;
1693;SDS011;844;47.058;15.472;2023-02-24T00:39:50;43.83;;;39.03;;
1693;SDS011;844;47.058;15.472;2023-02-24T00:42:25;44.30;;;37.30;;
1693;SDS011;844;47.058;15.472;2023-02-24T00:44:55;42.90;;;38.03;;
1693;SDS011;844;47.058;15.472;2023-02-24T00:47:25;40.50;;;36.17;;
1693;SDS011;844;47.058;15.472;2023-02-24T00:49:58;41.47;;;37.13;;
1693;SDS011;844;47.058;15.472;2023-02-24T00:52:28;39.03;;;34.90;;
1693;SDS011;844;47.058;15.472;2023-02-24T00:54:58;44.47;;;37.80;;
1693;SDS011;844;47.058;15.472;2023-02-24T00:57:29;40.80;;;36.40;;
1693;SDS011;844;47.058;15.472;2023-02-24T00:59:59;41.93;;;37.33;;
1693;SDS011;844;47.058;15.472;2023-02-24T01:02:35;43.53;;;38.73;;
1693;SDS011;844;47.058;15.472;2023-02-24T01:05:09;38.20;;;33.13;;
1693;SDS011;844;47.058;15.472;2023-02-24T01:07:42;38.77;;;34.57;;
1693;SDS011;844;47.058;15.472;2023-02-24T01:10:12;41.30;;;34.63;;
1693;SDS011;844;47.058;15.472;2023-02-24T01:12:44;37.50;;;33.43;;
1693;SDS011;844;47.058;15.472;2023-02-24T01:15:17;41.67;;;34.57;;
1693;SDS011;844;47.058;15.472;2023-02-24T01:17:50;37.10;;;33.00;;
1693;SDS011;844;47.058;15.472;2023-02-24T01:20:22;41.30;;;34.80;;
1693;SDS011;844;47.058;15.472;2023-02-24T01:22:56;36.67;;;32.73;;
1693;SDS011;844;47.058;15.472;2023-02-24T01:25:30;41.50;;;34.83;;
1693;SDS011;844;47.058;15.472;2023-02-24T01:28:01;41.20;;;35.20;;
1693;SDS011;844;47.058;15.472;2023-02-24T01:30:32;37.00;;;33.00;;
1693;SDS011;844;47.058;15.472;2023-02-24T01:33:01;37.80;;;33.47;;
1693;SDS011;844;47.058;15.472;2023-02-24T01:35:36;42.77;;;34.63;;
1693;SDS011;844;47.058;15.472;2023-02-24T01:38:06;41.27;;;34.67;;
1693;SDS011;844;47.058;15.472;2023-02-24T01:40:38;39.10;;;33.43;;
1693;SDS011;844;47.058;15.472;2023-02-24T01:43:08;34.53;;;30.90;;
1693;SDS011;844;47.058;15.472;2023-02-24T01:45:40;39.07;;;33.53;;
1693;SDS011;844;47.058;15.472;2023-02-24T01:48:10;34.53;;;30.80;;
1693;SDS011;844;47.058;15.472;2023-02-24T01:50:46;43.93;;;33.70;;
1693;SDS011;844;47.058;15.472;2023-02-24T01:53:19;38.20;;;33.57;;
1693;SDS011;844;47.058;15.472;2023-02-24T01:55:50;39.53;;;33.37;;
1693;SDS011;844;47.058;15.472;2023-02-24T01:58:22;42.30;;;34.60;;
1693;SDS011;844;47.058;15.472;2023-02-24T02:00:53;41.23;;;31.00;;
1693;SDS011;844;47.058;15.472;2023-02-24T02:03:26;38.13;;;33.33;;
1693;SDS011;844;47.058;15.472;2023-02-24T02:06:02;34.77;;;31.00;;
1693;SDS011;844;47.058;15.472;2023-02-24T02:08:34;34.70;;;30.90;;
1693;SDS011;844;47.058;15.472;2023-02-24T02:11:07;32.47;;;28.97;;
1693;SDS011;844;47.058;15.472;2023-02-24T02:13:41;37.40;;;33.13;;
1693;SDS011;844;47.058;15.472;2023-02-24T02:16:34;38.07;;;31.87;;
1693;SDS011;844;47.058;15.472;2023-02-24T02:19:24;34.63;;;30.97;;
1693;SDS011;844;47.058;15.472;2023-02-24T02:22:13;35.83;;;30.77;;
1693;SDS011;844;47.058;15.472;2023-02-24T02:24:54;33.57;;;28.67;;
1693;SDS011;844;47.058;15.472;2023-02-24T02:30:32;35.47;;;30.70;;
1693;SDS011;844;47.058;15.472;2023-02-24T02:36:28;34.87;;;28.33;;
1693;SDS011;844;47.058;15.472;2023-02-24T02:39:02;35.53;;;29.83;;
1693;SDS011;844;47.058;15.472;2023-02-24T02:41:43;33.63;;;30.13;;
1693;SDS011;844;47.058;15.472;2023-02-24T02:44:18;32.10;;;28.13;;
1693;SDS011;844;47.058;15.472;2023-02-24T02:46:52;34.80;;;31.10;;
1693;SDS011;844;47.058;15.472;2023-02-24T02:49:34;35.30;;;29.40;;
1693;SDS011;844;47.058;15.472;2023-02-24T02:52:08;33.87;;;29.67;;
1693;SDS011;844;47.058;15.472;2023-02-24T02:54:44;36.27;;;31.27;;
1693;SDS011;844;47.058;15.472;2023-02-24T02:57:18;33.13;;;29.83;;
1693;SDS011;844;47.058;15.472;2023-02-24T02:59:52;34.87;;;29.30;;
1693;SDS011;844;47.058;15.472;2023-02-24T03:02:26;37.77;;;30.70;;
1693;SDS011;844;47.058;15.472;2023-02-24T03:05:09;34.23;;;29.77;;
1693;SDS011;844;47.058;15.472;2023-02-24T03:07:45;37.10;;;31.00;;
1693;SDS011;844;47.058;15.472;2023-02-24T03:10:18;36.10;;;31.57;;
1693;SDS011;844;47.058;15.472;2023-02-24T03:12:51;36.00;;;30.60;;
1693;SDS011;844;47.058;15.472;2023-02-24T03:15:24;39.03;;;30.57;;
1693;SDS011;844;47.058;15.472;2023-02-24T03:17:59;38.67;;;33.57;;
1693;SDS011;844;47.058;15.472;2023-02-24T03:20:38;44.67;;;32.73;;
1693;SDS011;844;47.058;15.472;2023-02-24T03:23:13;40.23;;;31.87;;
1693;SDS011;844;47.058;15.472;2023-02-24T03:25:47;38.50;;;32.20;;
1693;SDS011;844;47.058;15.472;2023-02-24T03:28:26;35.53;;;30.37;;
1693;SDS011;844;47.058;15.472;2023-02-24T03:31:05;37.13;;;30.97;;
1693;SDS011;844;47.058;15.472;2023-02-24T03:33:39;41.23;;;30.37;;
1693;SDS011;844;47.058;15.472;2023-02-24T03:36:14;37.37;;;31.73;;
1693;SDS011;844;47.058;15.472;2023-02-24T03:38:45;32.90;;;29.40;;
1693;SDS011;844;47.058;15.472;2023-02-24T03:41:17;34.80;;;28.10;;
1693;SDS011;844;47.058;15.472;2023-02-24T03:43:48;40.33;;;33.27;;
1693;SDS011;844;47.058;15.472;2023-02-24T03:46:22;35.80;;;31.30;;
1693;SDS011;844;47.058;15.472;2023-02-24T03:48:54;34.40;;;30.80;;
1693;SDS011;844;47.058;15.472;2023-02-24T03:51:29;34.57;;;31.03;;
1693;SDS011;844;47.058;15.472;2023-02-24T03:54:02;36.47;;;29.27;;
1693;SDS011;844;47.058;15.472;2023-02-24T03:56:44;33.67;;;29.37;;
1693;SDS011;844;47.058;15.472;2023-02-24T03:59:26;32.87;;;28.63;;
1693;SDS011;844;47.058;15.472;2023-02-24T04:02:02;36.17;;;29.97;;
1693;SDS011;844;47.058;15.472;2023-02-24T04:04:38;37.73;;;30.77;;
1693;SDS011;844;47.058;15.472;2023-02-24T04:07:14;35.00;;;29.90;;
1693;SDS011;844;47.058;15.472;2023-02-24T04:09:56;31.53;;;27.77;;
1693;SDS011;844;47.058;15.472;2023-02-24T04:12:33;36.20;;;32.30;;
1693;SDS011;844;47.058;15.472;2023-02-24T04:15:10;40.93;;;32.60;;
1693;SDS011;844;47.058;15.472;2023-02-24T04:17:45;37.60;;;32.90;;
1693;SDS011;844;47.058;15.472;2023-02-24T04:20:20;33.23;;;29.77;;
1693;SDS011;844;47.058;15.472;2023-02-24T04:22:57;35.37;;;31.57;;
1693;SDS011;844;47.058;15.472;2023-02-24T04:25:30;39.07;;;31.47;;
1693;SDS011;844;47.058;15.472;2023-02-24T04:28:00;37.93;;;31.50;;
1693;SDS011;844;47.058;15.472;2023-02-24T04:30:35;33.93;;;30.23;;
1693;SDS011;844;47.058;15.472;2023-02-24T04:33:10;36.43;;;30.60;;
1693;SDS011;844;47.058;15.472;2023-02-24T04:35:43;40.03;;;30.83;;
1693;SDS011;844;47.058;15.472;2023-02-24T04:38:16;39.13;;;31.10;;
1693;SDS011;844;47.058;15.472;2023-02-24T04:40:47;39.40;;;33.30;;
1693;SDS011;844;47.058;15.472;2023-02-24T04:43:18;33.63;;;30.07;;
1693;SDS011;844;47.058;15.472;2023-02-24T04:45:48;40.00;;;33.83;;
1693;SDS011;844;47.058;15.472;2023-02-24T04:48:19;38.27;;;31.77;;
1693;SDS011;844;47.058;15.472;2023-02-24T04:50:49;38.50;;;31.63;;
1693;SDS011;844;47.058;15.472;2023-02-24T04:53:23;44.43;;;34.07;;
1693;SDS011;844;47.058;15.472;2023-02-24T04:55:54;39.27;;;34.73;;
1693;SDS011;844;47.058;15.472;2023-02-24T04:58:25;42.10;;;34.53;;
1693;SDS011;844;47.058;15.472;2023-02-24T05:00:56;40.53;;;35.43;;
1693;SDS011;844;47.058;15.472;2023-02-24T05:03:27;44.60;;;34.17;;
1693;SDS011;844;47.058;15.472;2023-02-24T05:05:57;42.33;;;33.33;;
1693;SDS011;844;47.058;15.472;2023-02-24T05:08:30;40.57;;;34.37;;
1693;SDS011;844;47.058;15.472;2023-02-24T05:11:02;43.90;;;35.57;;
1693;SDS011;844;47.058;15.472;2023-02-24T05:13:33;45.70;;;33.47;;
1693;SDS011;844;47.058;15.472;2023-02-24T05:16:04;39.97;;;35.83;;
1693;SDS011;844;47.058;15.472;2023-02-24T05:18:35;37.60;;;32.47;;
1693;SDS011;844;47.058;15.472;2023-02-24T05:21:07;41.00;;;34.50;;
1693;SDS011;844;47.058;15.472;2023-02-24T05:23:57;43.27;;;35.50;;
1693;SDS011;844;47.058;15.472;2023-02-24T05:26:33;44.07;;;38.47;;
1693;SDS011;844;47.058;15.472;2023-02-24T05:29:09;47.93;;;36.87;;
1693;SDS011;844;47.058;15.472;2023-02-24T05:31:40;40.90;;;36.33;;
1693;SDS011;844;47.058;15.472;2023-02-24T05:34:13;43.57;;;36.33;;
1693;SDS011;844;47.058;15.472;2023-02-24T05:36:44;39.43;;;34.57;;
1693;SDS011;844;47.058;15.472;2023-02-24T05:39:17;42.73;;;33.97;;
1693;SDS011;844;47.058;15.472;2023-02-24T05:41:48;37.33;;;33.17;;
1693;SDS011;844;47.058;15.472;2023-02-24T05:44:21;37.77;;;33.80;;
1693;SDS011;844;47.058;15.472;2023-02-24T05:46:54;38.50;;;33.27;;
1693;SDS011;844;47.058;15.472;2023-02-24T05:49:27;36.63;;;32.13;;
1693;SDS011;844;47.058;15.472;2023-02-24T05:52:02;43.63;;;35.00;;
1693;SDS011;844;47.058;15.472;2023-02-24T05:54:37;36.47;;;32.50;;
1693;SDS011;844;47.058;15.472;2023-02-24T05:57:09;38.47;;;34.27;;
1693;SDS011;844;47.058;15.472;2023-02-24T05:59:43;35.73;;;31.70;;
1693;SDS011;844;47.058;15.472;2023-02-24T06:02:15;38.60;;;33.73;;
1693;SDS011;844;47.058;15.472;2023-02-24T06:04:54;36.20;;;31.20;;
1693;SDS011;844;47.058;15.472;2023-02-24T06:07:28;39.83;;;30.80;;
1693;SDS011;844;47.058;15.472;2023-02-24T06:10:03;34.57;;;30.63;;
1693;SDS011;844;47.058;15.472;2023-02-24T06:12:37;38.37;;;33.10;;
1693;SDS011;844;47.058;15.472;2023-02-24T06:15:08;34.87;;;31.00;;
1693;SDS011;844;47.058;15.472;2023-02-24T06:17:39;35.97;;;31.90;;
1693;SDS011;844;47.058;15.472;2023-02-24T06:20:10;38.50;;;32.07;;
1693;SDS011;844;47.058;15.472;2023-02-24T06:22:43;33.90;;;30.30;;
1693;SDS011;844;47.058;15.472;2023-02-24T06:25:17;40.27;;;34.07;;
1693;SDS011;844;47.058;15.472;2023-02-24T06:27:51;35.57;;;31.73;;
1693;SDS011;844;47.058;15.472;2023-02-24T06:30:23;35.47;;;30.60;;
1693;SDS011;844;47.058;15.472;2023-02-24T06:32:54;35.30;;;31.70;;
1693;SDS011;844;47.058;15.472;2023-02-24T06:35:25;33.93;;;30.40;;
1693;SDS011;844;47.058;15.472;2023-02-24T06:37:56;32.83;;;29.30;;
1693;SDS011;844;47.058;15.472;2023-02-24T06:40:28;34.13;;;30.60;;
1693;SDS011;844;47.058;15.472;2023-02-24T06:42:58;35.60;;;31.90;;
1693;SDS011;844;47.058;15.472;2023-02-24T06:45:29;36.37;;;32.40;;
1693;SDS011;844;47.058;15.472;2023-02-24T06:47:59;41.33;;;36.57;;
1693;SDS011;844;47.058;15.472;2023-02-24T06:50:29;42.50;;;34.23;;
1693;SDS011;844;47.058;15.472;2023-02-24T06:52:59;36.13;;;32.23;;
1693;SDS011;844;47.058;15.472;2023-02-24T06:55:32;35.33;;;30.40;;
1693;SDS011;844;47.058;15.472;2023-02-24T06:58:02;36.27;;;31.77;;
1693;SDS011;844;47.058;15.472;2023-02-24T07:00:34;36.37;;;32.70;;
1693;SDS011;844;47.058;15.472;2023-02-24T07:03:06;40.23;;;35.83;;
1693;SDS011;844;47.058;15.472;2023-02-24T07:05:43;36.80;;;31.70;;
1693;SDS011;844;47.058;15.472;2023-02-24T07:08:18;40.27;;;34.20;;
1693;SDS011;844;47.058;15.472;2023-02-24T07:10:55;43.47;;;35.47;;
1693;SDS011;844;47.058;15.472;2023-02-24T07:13:27;41.83;;;37.43;;
1693;SDS011;844;47.058;15.472;2023-02-24T07:15:58;41.90;;;37.53;;
1693;SDS011;844;47.058;15.472;2023-02-24T07:18:34;43.83;;;37.70;;
1693;SDS011;844;47.058;15.472;2023-02-24T07:21:07;44.30;;;39.50;;
1693;SDS011;844;47.058;15.472;2023-02-24T07:23:39;41.47;;;34.60;;
1693;SDS011;844;47.058;15.472;2023-02-24T07:26:12;41.30;;;36.87;;
1693;SDS011;844;47.058;15.472;2023-02-24T07:28:45;42.17;;;37.67;;
1693;SDS011;844;47.058;15.472;2023-02-24T07:31:16;43.77;;;39.17;;
1693;SDS011;844;47.058;15.472;2023-02-24T07:33:51;45.13;;;40.60;;
1693;SDS011;844;47.058;15.472;2023-02-24T07:36:23;44.87;;;38.90;;
1693;SDS011;844;47.058;15.472;2023-02-24T07:38:57;44.93;;;39.77;;
1693;SDS011;844;47.058;15.472;2023-02-24T07:41:32;47.70;;;41.80;;
1693;SDS011;844;47.058;15.472;2023-02-24T07:44:04;49.80;;;43.77;;
1693;SDS011;844;47.058;15.472;2023-02-24T07:46:36;55.90;;;45.90;;
1693;SDS011;844;47.058;15.472;2023-02-24T07:49:08;55.43;;;44.90;;
1693;SDS011;844;47.058;15.472;2023-02-24T07:51:42;49.77;;;44.47;;
1693;SDS011;844;47.058;15.472;2023-02-24T07:54:15;49.37;;;43.07;;
1693;SDS011;844;47.058;15.472;2023-02-24T07:56:49;47.03;;;40.80;;
1693;SDS011;844;47.058;15.472;2023-02-24T07:59:26;44.53;;;38.93;;
1693;SDS011;844;47.058;15.472;2023-02-24T08:01:59;46.87;;;41.00;;
1693;SDS011;844;47.058;15.472;2023-02-24T08:04:33;49.70;;;41.40;;
1693;SDS011;844;47.058;15.472;2023-02-24T08:07:07;51.83;;;42.00;;
1693;SDS011;844;47.058;15.472;2023-02-24T08:09:45;49.07;;;40.40;;
1693;SDS011;844;47.058;15.472;2023-02-24T08:12:39;44.63;;;39.90;;
1693;SDS011;844;47.058;15.472;2023-02-24T08:15:11;52.50;;;40.87;;
1693;SDS011;844;47.058;15.472;2023-02-24T08:17:52;44.57;;;39.77;;
1693;SDS011;844;47.058;15.472;2023-02-24T08:20:28;44.67;;;38.67;;
1693;SDS011;844;47.058;15.472;2023-02-24T08:23:18;47.30;;;41.57;;
1693;SDS011;844;47.058;15.472;2023-02-24T08:25:51;44.70;;;36.70;;
1693;SDS011;844;47.058;15.472;2023-02-24T08:28:24;48.53;;;37.30;;
1693;SDS011;844;47.058;15.472;2023-02-24T08:30:55;39.97;;;34.70;;
1693;SDS011;844;47.058;15.472;2023-02-24T08:33:26;39.67;;;35.03;;
1693;SDS011;844;47.058;15.472;2023-02-24T08:35:57;40.80;;;36.47;;
1693;SDS011;844;47.058;15.472;2023-02-24T08:38:30;38.60;;;33.00;;
1693;SDS011;844;47.058;15.472;2023-02-24T08:41:11;37.13;;;33.10;;
1693;SDS011;844;47.058;15.472;2023-02-24T08:43:49;37.13;;;32.83;;
1693;SDS011;844;47.058;15.472;2023-02-24T08:46:20;37.33;;;31.13;;
1693;SDS011;844;47.058;15.472;2023-02-24T08:48:59;35.23;;;31.40;;
1693;SDS011;844;47.058;15.472;2023-02-24T08:51:38;34.93;;;31.30;;
1693;SDS011;844;47.058;15.472;2023-02-24T08:54:11;37.40;;;31.00;;
1693;SDS011;844;47.058;15.472;2023-02-24T08:56:43;36.13;;;30.77;;
1693;SDS011;844;47.058;15.472;2023-02-24T08:59:25;34.83;;;27.80;;
1693;SDS011;844;47.058;15.472;2023-02-24T09:02:17;41.73;;;31.23;;
1693;SDS011;844;47.058;15.472;2023-02-24T09:04:55;35.07;;;31.53;;
1693;SDS011;844;47.058;15.472;2023-02-24T09:07:28;34.60;;;29.87;;
1693;SDS011;844;47.058;15.472;2023-02-24T09:10:02;36.83;;;29.00;;
1693;SDS011;844;47.058;15.472;2023-02-24T09:12:38;33.30;;;29.40;;
1693;SDS011;844;47.058;15.472;2023-02-24T09:15:11;31.77;;;27.37;;
1693;SDS011;844;47.058;15.472;2023-02-24T09:17:43;34.07;;;29.10;;
1693;SDS011;844;47.058;15.472;2023-02-24T09:20:33;32.60;;;27.93;;
1693;SDS011;844;47.058;15.472;2023-02-24T09:23:18;30.57;;;27.43;;
1693;SDS011;844;47.058;15.472;2023-02-24T09:25:56;33.13;;;27.50;;
1693;SDS011;844;47.058;15.472;2023-02-24T09:28:37;32.07;;;28.60;;
1693;SDS011;844;47.058;15.472;2023-02-24T09:31:16;31.80;;;28.37;;
1693;SDS011;844;47.058;15.472;2023-02-24T09:33:51;31.70;;;28.27;;
1693;SDS011;844;47.058;15.472;2023-02-24T09:36:20;32.20;;;25.83;;
1693;SDS011;844;47.058;15.472;2023-02-24T09:38:57;40.17;;;31.77;;
1693;SDS011;844;47.058;15.472;2023-02-24T09:41:41;35.73;;;26.67;;
1693;SDS011;844;47.058;15.472;2023-02-24T09:44:25;30.40;;;26.63;;
1693;SDS011;844;47.058;15.472;2023-02-24T09:47:02;31.13;;;27.80;;
1693;SDS011;844;47.058;15.472;2023-02-24T09:49:46;29.77;;;26.57;;
1693;SDS011;844;47.058;15.472;2023-02-24T09:52:23;28.90;;;25.90;;
1693;SDS011;844;47.058;15.472;2023-02-24T09:55:10;27.37;;;24.57;;
1693;SDS011;844;47.058;15.472;2023-02-24T09:57:53;25.33;;;22.37;;
1693;SDS011;844;47.058;15.472;2023-02-24T10:00:51;23.17;;;20.60;;
1693;SDS011;844;47.058;15.472;2023-02-24T10:03:29;23.33;;;21.10;;
1693;SDS011;844;47.058;15.472;2023-02-24T10:06:14;29.00;;;22.20;;
1693;SDS011;844;47.058;15.472;2023-02-24T10:08:51;23.63;;;21.20;;
1693;SDS011;844;47.058;15.472;2023-02-24T10:11:25;23.80;;;21.37;;
1693;SDS011;844;47.058;15.472;2023-02-24T10:14:02;24.03;;;21.53;;
1693;SDS011;844;47.058;15.472;2023-02-24T10:16:35;22.70;;;20.30;;
1693;SDS011;844;47.058;15.472;2023-02-24T10:19:21;24.70;;;19.70;;
1693;SDS011;844;47.058;15.472;2023-02-24T10:21:55;18.27;;;16.30;;
1693;SDS011;844;47.058;15.472;2023-02-24T10:24:32;19.50;;;17.50;;
1693;SDS011;844;47.058;15.472;2023-02-24T10:27:08;19.80;;;17.80;;
1693;SDS011;844;47.058;15.472;2023-02-24T10:29:49;19.43;;;16.97;;
1693;SDS011;844;47.058;15.472;2023-02-24T10:32:32;20.70;;;18.40;;
1693;SDS011;844;47.058;15.472;2023-02-24T10:35:13;20.00;;;17.93;;
1693;SDS011;844;47.058;15.472;2023-02-24T10:37:45;22.10;;;16.50;;
1693;SDS011;844;47.058;15.472;2023-02-24T10:40:16;17.47;;;15.60;;
1693;SDS011;844;47.058;15.472;2023-02-24T10:43:02;16.87;;;15.10;;
1693;SDS011;844;47.058;15.472;2023-02-24T10:45:37;19.37;;;16.87;;
1693;SDS011;844;47.058;15.472;2023-02-24T10:48:18;18.17;;;16.37;;
1693;SDS011;844;47.058;15.472;2023-02-24T10:51:12;19.77;;;17.63;;
1693;SDS011;844;47.058;15.472;2023-02-24T10:53:47;17.43;;;15.53;;
1693;SDS011;844;47.058;15.472;2023-02-24T10:56:40;19.17;;;17.27;;
1693;SDS011;844;47.058;15.472;2023-02-24T10:59:22;19.20;;;16.53;;
1693;SDS011;844;47.058;15.472;2023-02-24T11:02:32;20.37;;;16.93;;
1693;SDS011;844;47.058;15.472;2023-02-24T11:05:23;21.70;;;18.70;;
1693;SDS011;844;47.058;15.472;2023-02-24T11:08:10;21.80;;;18.70;;
1693;SDS011;844;47.058;15.472;2023-02-24T11:11:07;19.77;;;17.73;;
1693;SDS011;844;47.058;15.472;2023-02-24T11:13:47;19.60;;;16.87;;
1693;SDS011;844;47.058;15.472;2023-02-24T11:16:46;19.40;;;17.40;;
1693;SDS011;844;47.058;15.472;2023-02-24T11:19:38;18.93;;;15.80;;
1693;SDS011;844;47.058;15.472;2023-02-24T11:22:12;17.03;;;15.33;;
1693;SDS011;844;47.058;15.472;2023-02-24T11:24:46;19.47;;;17.47;;
1693;SDS011;844;47.058;15.472;2023-02-24T11:27:17;18.27;;;16.03;;
1693;SDS011;844;47.058;15.472;2023-02-24T11:29:56;21.90;;;17.60;;
1693;SDS011;844;47.058;15.472;2023-02-24T11:32:36;19.30;;;17.37;;
1693;SDS011;844;47.058;15.472;2023-02-24T11:35:30;19.53;;;17.17;;
1693;SDS011;844;47.058;15.472;2023-02-24T11:38:06;17.13;;;15.43;;
1693;SDS011;844;47.058;15.472;2023-02-24T11:40:47;17.70;;;15.47;;
1693;SDS011;844;47.058;15.472;2023-02-24T11:43:25;19.67;;;17.77;;
1693;SDS011;844;47.058;15.472;2023-02-24T11:45:57;18.70;;;16.50;;
1693;SDS011;844;47.058;15.472;2023-02-24T11:48:33;18.73;;;16.57;;
1693;SDS011;844;47.058;15.472;2023-02-24T11:51:06;19.30;;;17.23;;
1693;SDS011;844;47.058;15.472;2023-02-24T11:53:42;18.07;;;16.17;;
1693;SDS011;844;47.058;15.472;2023-02-24T11:56:18;20.43;;;18.17;;
1693;SDS011;844;47.058;15.472;2023-02-24T11:58:52;18.20;;;15.97;;
1693;SDS011;844;47.058;15.472;2023-02-24T12:01:29;20.70;;;17.90;;
1693;SDS011;844;47.058;15.472;2023-02-24T12:04:05;20.47;;;17.17;;
1693;SDS011;844;47.058;15.472;2023-02-24T12:06:42;18.00;;;15.77;;
1693;SDS011;844;47.058;15.472;2023-02-24T12:09:20;19.20;;;15.63;;
1693;SDS011;844;47.058;15.472;2023-02-24T12:11:59;18.67;;;15.93;;
1693;SDS011;844;47.058;15.472;2023-02-24T12:14:35;16.47;;;14.77;;
1693;SDS011;844;47.058;15.472;2023-02-24T12:17:12;18.47;;;14.93;;
1693;SDS011;844;47.058;15.472;2023-02-24T12:19:50;16.03;;;14.47;;
1693;SDS011;844;47.058;15.472;2023-02-24T12:22:29;20.33;;;17.57;;
1693;SDS011;844;47.058;15.472;2023-02-24T12:25:09;18.47;;;16.40;;
1693;SDS011;844;47.058;15.472;2023-02-24T12:27:48;17.23;;;15.43;;
1693;SDS011;844;47.058;15.472;2023-02-24T12:30:30;19.00;;;17.00;;
1693;SDS011;844;47.058;15.472;2023-02-24T12:33:26;17.00;;;14.67;;
1693;SDS011;844;47.058;15.472;2023-02-24T12:36:04;18.50;;;15.93;;
1693;SDS011;844;47.058;15.472;2023-02-24T12:38:46;20.40;;;18.30;;
1693;SDS011;844;47.058;15.472;2023-02-24T12:41:29;19.17;;;15.30;;
1693;SDS011;844;47.058;15.472;2023-02-24T12:44:11;19.47;;;17.43;;
1693;SDS011;844;47.058;15.472;2023-02-24T12:46:50;16.50;;;14.90;;
1693;SDS011;844;47.058;15.472;2023-02-24T12:49:28;17.07;;;15.57;;
1693;SDS011;844;47.058;15.472;2023-02-24T12:52:12;18.70;;;16.30;;
1693;SDS011;844;47.058;15.472;2023-02-24T12:54:49;15.33;;;13.93;;
1693;SDS011;844;47.058;15.472;2023-02-24T12:57:26;17.43;;;15.60;;
1693;SDS011;844;47.058;15.472;2023-02-24T13:00:02;17.83;;;15.97;;
1693;SDS011;844;47.058;15.472;2023-02-24T13:02:39;15.63;;;13.87;;
1693;SDS011;844;47.058;15.472;2023-02-24T13:05:18;17.83;;;16.27;;
1693;SDS011;844;47.058;15.472;2023-02-24T13:07:54;18.43;;;16.67;;
1693;SDS011;844;47.058;15.472;2023-02-24T13:10:50;16.77;;;15.17;;
1693;SDS011;844;47.058;15.472;2023-02-24T13:13:30;17.63;;;15.80;;
1693;SDS011;844;47.058;15.472;2023-02-24T13:16:10;15.73;;;14.20;;
1693;SDS011;844;47.058;15.472;2023-02-24T13:18:40;17.83;;;16.03;;
1693;SDS011;844;47.058;15.472;2023-02-24T13:21:17;18.03;;;16.27;;
1693;SDS011;844;47.058;15.472;2023-02-24T13:23:58;18.03;;;16.10;;
1693;SDS011;844;47.058;15.472;2023-02-24T13:26:30;20.27;;;17.63;;
1693;SDS011;844;47.058;15.472;2023-02-24T13:29:02;20.23;;;16.77;;
1693;SDS011;844;47.058;15.472;2023-02-24T13:31:43;20.87;;;16.83;;
1693;SDS011;844;47.058;15.472;2023-02-24T13:34:28;16.77;;;15.07;;
1693;SDS011;844;47.058;15.472;2023-02-24T13:36:59;18.23;;;16.37;;
1693;SDS011;844;47.058;15.472;2023-02-24T13:39:32;18.67;;;16.80;;
1693;SDS011;844;47.058;15.472;2023-02-24T13:42:04;19.70;;;16.77;;
1693;SDS011;844;47.058;15.472;2023-02-24T13:44:51;18.53;;;15.60;;
1693;SDS011;844;47.058;15.472;2023-02-24T13:47:29;19.67;;;17.37;;
1693;SDS011;844;47.058;15.472;2023-02-24T13:50:19;20.03;;;16.90;;
1693;SDS011;844;47.058;15.472;2023-02-24T13:52:56;17.83;;;16.03;;
1693;SDS011;844;47.058;15.472;2023-02-24T13:55:37;19.10;;;15.37;;
1693;SDS011;844;47.058;15.472;2023-02-24T14:01:17;16.47;;;14.80;;
1693;SDS011;844;47.058;15.472;2023-02-24T14:04:05;16.60;;;14.90;;
1693;SDS011;844;47.058;15.472;2023-02-24T14:06:44;16.73;;;15.17;;
1693;SDS011;844;47.058;15.472;2023-02-24T14:09:17;18.47;;;14.23;;
1693;SDS011;844;47.058;15.472;2023-02-24T14:11:51;16.50;;;14.47;;
1693;SDS011;844;47.058;15.472;2023-02-24T14:14:25;15.27;;;13.50;;
1693;SDS011;844;47.058;15.472;2023-02-24T14:16:56;16.63;;;14.83;;
1693;SDS011;844;47.058;15.472;2023-02-24T14:19:28;16.47;;;14.77;;
1693;SDS011;844;47.058;15.472;2023-02-24T14:21:58;16.83;;;12.93;;
1693;SDS011;844;47.058;15.472;2023-02-24T14:24:28;13.67;;;12.27;;
1693;SDS011;844;47.058;15.472;2023-02-24T14:26:58;19.17;;;13.50;;
1693;SDS011;844;47.058;15.472;2023-02-24T14:29:32;14.90;;;13.43;;
1693;SDS011;844;47.058;15.472;2023-02-24T14:32:14;16.57;;;14.00;;
1693;SDS011;844;47.058;15.472;2023-02-24T14:34:51;17.47;;;13.20;;
1693;SDS011;844;47.058;15.472;2023-02-24T14:37:22;15.97;;;12.47;;
1693;SDS011;844;47.058;15.472;2023-02-24T14:39:55;17.03;;;12.63;;
1693;SDS011;844;47.058;15.472;2023-02-24T14:42:26;21.60;;;14.20;;
1693;SDS011;844;47.058;15.472;2023-02-24T14:44:57;15.60;;;13.73;;
1693;SDS011;844;47.058;15.472;2023-02-24T14:47:28;16.13;;;13.63;;
1693;SDS011;844;47.058;15.472;2023-02-24T14:50:17;15.80;;;13.43;;
1693;SDS011;844;47.058;15.472;2023-02-24T14:52:48;16.20;;;13.90;;
1693;SDS011;844;47.058;15.472;2023-02-24T14:55:30;14.77;;;13.07;;
1693;SDS011;844;47.058;15.472;2023-02-24T14:58:04;17.60;;;13.03;;
1693;SDS011;844;47.058;15.472;2023-02-24T15:00:39;16.37;;;12.20;;
1693;SDS011;844;47.058;15.472;2023-02-24T15:03:12;17.47;;;14.23;;
1693;SDS011;844;47.058;15.472;2023-02-24T15:05:49;15.63;;;12.00;;
1693;SDS011;844;47.058;15.472;2023-02-24T15:08:26;13.23;;;11.17;;
1693;SDS011;844;47.058;15.472;2023-02-24T15:10:59;14.73;;;12.87;;
1693;SDS011;844;47.058;15.472;2023-02-24T15:13:37;16.40;;;12.60;;
1693;SDS011;844;47.058;15.472;2023-02-24T15:16:11;17.93;;;12.70;;
1693;SDS011;844;47.058;15.472;2023-02-24T15:18:50;19.27;;;12.70;;
1693;SDS011;844;47.058;15.472;2023-02-24T15:21:27;20.47;;;14.77;;
1693;SDS011;844;47.058;15.472;2023-02-24T15:24:02;17.67;;;12.70;;
1693;SDS011;844;47.058;15.472;2023-02-24T15:26:33;19.63;;;14.57;;
1693;SDS011;844;47.058;15.472;2023-02-24T15:29:11;18.20;;;13.33;;
1693;SDS011;844;47.058;15.472;2023-02-24T15:31:45;14.20;;;12.80;;
1693;SDS011;844;47.058;15.472;2023-02-24T15:34:17;17.27;;;13.47;;
1693;SDS011;844;47.058;15.472;2023-02-24T15:36:52;18.10;;;13.13;;
1693;SDS011;844;47.058;15.472;2023-02-24T15:39:26;19.60;;;13.17;;
1693;SDS011;844;47.058;15.472;2023-02-24T15:42:12;16.80;;;13.97;;
1693;SDS011;844;47.058;15.472;2023-02-24T15:44:52;25.30;;;14.17;;
1693;SDS011;844;47.058;15.472;2023-02-24T15:49:59;20.90;;;14.20;;
1693;SDS011;844;47.058;15.472;2023-02-24T15:52:32;18.33;;;14.30;;